sensor_id;sensor_type;location;lat;lon;timestamp;temperature;humidity
58865;DHT22;45702;52.982;6.658;2023-01-15T00:00:49;6.80;99.90
58865;DHT22;45702;52.982;6.658;2023-01-15T00:03:15;6.80;99.90
58865;DHT22;45702;52.982;6.658;2023-01-15T00:05:43;6.80;99.90
58865;DHT22;45702;52.982;6.658;2023-01-15T00:08:09;6.70;99.90
58865;DHT22;45702;52.982;6.658;2023-01-15T00:10:35;6.70;99.90
58865;DHT22;45702;52.982;6.658;2023-01-15T00:13:01;6.70;99.90
58865;DHT22;45702;52.982;6.658;2023-01-15T00:15:27;6.70;99.90
58865;DHT22;45702;52.982;6.658;2023-01-15T00:17:55;6.70;99.90
58865;DHT22;45702;52.982;6.658;2023-01-15T00:20:20;6.70;99.90
58865;DHT22;45702;52.982;6.658;2023-01-15T00:22:46;6.70;99.90
58865;DHT22;45702;52.982;6.658;2023-01-15T00:25:12;6.70;99.90
58865;DHT22;45702;52.982;6.658;2023-01-15T00:27:56;6.70;99.90
58865;DHT22;45702;52.982;6.658;2023-01-15T00:30:21;6.70;99.90
58865;DHT22;45702;52.982;6.658;2023-01-15T00:32:48;6.70;99.90
58865;DHT22;45702;52.982;6.658;2023-01-15T00:35:18;6.70;99.90
58865;DHT22;45702;52.982;6.658;2023-01-15T00:37:44;6.70;99.90
58865;DHT22;45702;52.982;6.658;2023-01-15T00:40:12;6.70;99.90
58865;DHT22;45702;52.982;6.658;2023-01-15T00:42:38;6.80;99.90
58865;DHT22;45702;52.982;6.658;2023-01-15T00:45:05;6.80;99.90
58865;DHT22;45702;52.982;6.658;2023-01-15T00:47:38;6.80;99.90
58865;DHT22;45702;52.982;6.658;2023-01-15T00:50:07;6.80;99.90
58865;DHT22;45702;52.982;6.658;2023-01-15T00:52:37;6.80;99.90
58865;DHT22;45702;52.982;6.658;2023-01-15T00:55:06;6.80;99.90
58865;DHT22;45702;52.982;6.658;2023-01-15T00:57:32;6.80;99.90
58865;DHT22;45702;52.982;6.658;2023-01-15T00:59:58;6.80;99.90
58865;DHT22;45702;52.982;6.658;2023-01-15T01:02:24;6.80;99.90
58865;DHT22;45702;52.982;6.658;2023-01-15T01:04:50;6.80;99.90
58865;DHT22;45702;52.982;6.658;2023-01-15T01:07:16;6.80;99.90
58865;DHT22;45702;52.982;6.658;2023-01-15T01:09:43;6.80;99.90
58865;DHT22;45702;52.982;6.658;2023-01-15T01:12:09;6.80;99.90
58865;DHT22;45702;52.982;6.658;2023-01-15T01:14:36;6.80;99.90
58865;DHT22;45702;52.982;6.658;2023-01-15T01:17:01;6.80;99.90
58865;DHT22;45702;52.982;6.658;2023-01-15T01:19:27;6.70;99.90
58865;DHT22;45702;52.982;6.658;2023-01-15T01:21:53;6.80;99.90
58865;DHT22;45702;52.982;6.658;2023-01-15T01:24:21;6.80;99.90
58865;DHT22;45702;52.982;6.658;2023-01-15T01:26:47;6.80;99.90
58865;DHT22;45702;52.982;6.658;2023-01-15T01:29:16;6.80;99.90
58865;DHT22;45702;52.982;6.658;2023-01-15T01:31:41;6.90;99.90
58865;DHT22;45702;52.982;6.658;2023-01-15T01:34:08;6.90;99.90
58865;DHT22;45702;52.982;6.658;2023-01-15T01:36:35;6.90;99.90
58865;DHT22;45702;52.982;6.658;2023-01-15T01:39:02;6.90;99.90
58865;DHT22;45702;52.982;6.658;2023-01-15T01:41:29;6.90;99.90
58865;DHT22;45702;52.982;6.658;2023-01-15T01:44:05;6.90;99.90
58865;DHT22;45702;52.982;6.658;2023-01-15T01:46:33;6.90;99.90
58865;DHT22;45702;52.982;6.658;2023-01-15T01:49:07;6.90;99.90
58865;DHT22;45702;52.982;6.658;2023-01-15T01:51:38;6.90;99.90
58865;DHT22;45702;52.982;6.658;2023-01-15T01:54:06;6.90;99.90
58865;DHT22;45702;52.982;6.658;2023-01-15T01:56:35;6.90;99.90
58865;DHT22;45702;52.982;6.658;2023-01-15T01:59:02;6.90;99.90
58865;DHT22;45702;52.982;6.658;2023-01-15T02:01:28;6.90;99.90
58865;DHT22;45702;52.982;6.658;2023-01-15T02:03:54;6.90;99.90
58865;DHT22;45702;52.982;6.658;2023-01-15T02:06:21;6.80;99.90
58865;DHT22;45702;52.982;6.658;2023-01-15T02:08:47;6.80;99.90
58865;DHT22;45702;52.982;6.658;2023-01-15T02:11:19;6.80;99.90
58865;DHT22;45702;52.982;6.658;2023-01-15T02:16:27;6.80;99.90
58865;DHT22;45702;52.982;6.658;2023-01-15T02:29:34;6.90;99.90
58865;DHT22;45702;52.982;6.658;2023-01-15T02:32:11;6.90;99.90
58865;DHT22;45702;52.982;6.658;2023-01-15T02:34:45;6.90;99.90
58865;DHT22;45702;52.982;6.658;2023-01-15T02:37:16;6.90;99.90
58865;DHT22;45702;52.982;6.658;2023-01-15T02:39:44;6.80;99.90
58865;DHT22;45702;52.982;6.658;2023-01-15T02:42:12;6.80;99.90
58865;DHT22;45702;52.982;6.658;2023-01-15T02:44:41;6.80;99.90
58865;DHT22;45702;52.982;6.658;2023-01-15T02:47:09;6.80;99.90
58865;DHT22;45702;52.982;6.658;2023-01-15T02:49:36;6.80;99.90
58865;DHT22;45702;52.982;6.658;2023-01-15T02:52:11;6.70;99.90
58865;DHT22;45702;52.982;6.658;2023-01-15T02:54:44;6.80;99.90
58865;DHT22;45702;52.982;6.658;2023-01-15T02:57:11;6.80;99.90
58865;DHT22;45702;52.982;6.658;2023-01-15T02:59:41;6.80;99.90
58865;DHT22;45702;52.982;6.658;2023-01-15T03:02:17;6.90;99.90
58865;DHT22;45702;52.982;6.658;2023-01-15T03:04:54;6.90;99.90
58865;DHT22;45702;52.982;6.658;2023-01-15T03:11:03;6.90;99.90
58865;DHT22;45702;52.982;6.658;2023-01-15T03:14:27;6.90;99.90
58865;DHT22;45702;52.982;6.658;2023-01-15T03:16:54;6.90;99.90
58865;DHT22;45702;52.982;6.658;2023-01-15T03:19:26;6.80;99.90
58865;DHT22;45702;52.982;6.658;2023-01-15T03:24:42;6.80;99.90
58865;DHT22;45702;52.982;6.658;2023-01-15T03:27:10;6.80;99.90
58865;DHT22;45702;52.982;6.658;2023-01-15T03:29:42;6.80;99.90
58865;DHT22;45702;52.982;6.658;2023-01-15T03:32:09;6.80;99.90
58865;DHT22;45702;52.982;6.658;2023-01-15T03:34:45;6.70;99.90
58865;DHT22;45702;52.982;6.658;2023-01-15T03:37:11;6.70;99.90
58865;DHT22;45702;52.982;6.658;2023-01-15T03:39:38;6.70;99.90
58865;DHT22;45702;52.982;6.658;2023-01-15T03:51:04;6.70;99.90
58865;DHT22;45702;52.982;6.658;2023-01-15T03:58:45;6.70;99.90
58865;DHT22;45702;52.982;6.658;2023-01-15T04:01:15;6.60;99.90
58865;DHT22;45702;52.982;6.658;2023-01-15T04:03:44;6.60;99.90
58865;DHT22;45702;52.982;6.658;2023-01-15T04:06:10;6.60;99.90
58865;DHT22;45702;52.982;6.658;2023-01-15T04:08:41;6.60;99.90
58865;DHT22;45702;52.982;6.658;2023-01-15T04:11:08;6.50;99.90
58865;DHT22;45702;52.982;6.658;2023-01-15T04:13:34;6.60;99.90
58865;DHT22;45702;52.982;6.658;2023-01-15T04:16:00;6.60;99.90
58865;DHT22;45702;52.982;6.658;2023-01-15T04:18:26;6.60;99.90
58865;DHT22;45702;52.982;6.658;2023-01-15T04:20:51;6.50;99.90
58865;DHT22;45702;52.982;6.658;2023-01-15T04:23:19;6.50;99.90
58865;DHT22;45702;52.982;6.658;2023-01-15T04:25:44;6.50;99.90
58865;DHT22;45702;52.982;6.658;2023-01-15T04:28:10;6.50;99.90
58865;DHT22;45702;52.982;6.658;2023-01-15T04:30:37;6.50;99.90
58865;DHT22;45702;52.982;6.658;2023-01-15T04:33:03;6.50;99.90
58865;DHT22;45702;52.982;6.658;2023-01-15T04:35:29;6.50;99.90
58865;DHT22;45702;52.982;6.658;2023-01-15T04:37:56;6.50;99.90
58865;DHT22;45702;52.982;6.658;2023-01-15T04:40:22;6.50;99.90
58865;DHT22;45702;52.982;6.658;2023-01-15T04:43:10;6.50;99.90
58865;DHT22;45702;52.982;6.658;2023-01-15T04:45:55;6.50;99.90
58865;DHT22;45702;52.982;6.658;2023-01-15T04:48:21;6.50;99.90
58865;DHT22;45702;52.982;6.658;2023-01-15T04:50:47;6.50;99.90
58865;DHT22;45702;52.982;6.658;2023-01-15T04:53:13;6.50;99.90
58865;DHT22;45702;52.982;6.658;2023-01-15T04:55:38;6.40;99.90
58865;DHT22;45702;52.982;6.658;2023-01-15T04:58:04;6.40;99.90
58865;DHT22;45702;52.982;6.658;2023-01-15T05:00:30;6.40;99.90
58865;DHT22;45702;52.982;6.658;2023-01-15T05:02:55;6.30;99.90
58865;DHT22;45702;52.982;6.658;2023-01-15T05:05:21;6.40;99.90
58865;DHT22;45702;52.982;6.658;2023-01-15T05:07:47;6.30;99.90
58865;DHT22;45702;52.982;6.658;2023-01-15T05:10:12;6.30;99.90
58865;DHT22;45702;52.982;6.658;2023-01-15T05:12:38;6.30;99.90
58865;DHT22;45702;52.982;6.658;2023-01-15T05:15:04;6.30;99.90
58865;DHT22;45702;52.982;6.658;2023-01-15T05:17:31;6.30;99.90
58865;DHT22;45702;52.982;6.658;2023-01-15T05:19:57;6.30;99.90
58865;DHT22;45702;52.982;6.658;2023-01-15T05:22:23;6.10;99.90
58865;DHT22;45702;52.982;6.658;2023-01-15T05:24:48;6.20;99.90
58865;DHT22;45702;52.982;6.658;2023-01-15T05:27:14;6.20;99.90
58865;DHT22;45702;52.982;6.658;2023-01-15T05:29:40;6.20;99.90
58865;DHT22;45702;52.982;6.658;2023-01-15T05:32:05;6.10;99.90
58865;DHT22;45702;52.982;6.658;2023-01-15T05:34:31;6.20;99.90
58865;DHT22;45702;52.982;6.658;2023-01-15T05:36:57;6.20;99.90
58865;DHT22;45702;52.982;6.658;2023-01-15T05:39:22;6.20;99.90
58865;DHT22;45702;52.982;6.658;2023-01-15T05:41:48;6.20;99.90
58865;DHT22;45702;52.982;6.658;2023-01-15T05:44:34;6.20;99.90
58865;DHT22;45702;52.982;6.658;2023-01-15T05:47:01;6.20;99.90
58865;DHT22;45702;52.982;6.658;2023-01-15T05:49:32;6.20;99.90
58865;DHT22;45702;52.982;6.658;2023-01-15T05:51:59;6.10;99.90
58865;DHT22;45702;52.982;6.658;2023-01-15T05:54:28;6.10;99.90
58865;DHT22;45702;52.982;6.658;2023-01-15T05:56:54;6.10;99.90
58865;DHT22;45702;52.982;6.658;2023-01-15T05:59:25;6.00;99.90
58865;DHT22;45702;52.982;6.658;2023-01-15T06:01:52;6.00;99.90
58865;DHT22;45702;52.982;6.658;2023-01-15T06:04:18;6.00;99.90
58865;DHT22;45702;52.982;6.658;2023-01-15T06:06:50;6.00;99.90
58865;DHT22;45702;52.982;6.658;2023-01-15T06:09:16;5.90;99.90
58865;DHT22;45702;52.982;6.658;2023-01-15T06:11:42;5.90;99.90
58865;DHT22;45702;52.982;6.658;2023-01-15T06:14:10;6.00;99.90
58865;DHT22;45702;52.982;6.658;2023-01-15T06:16:36;5.90;99.90
58865;DHT22;45702;52.982;6.658;2023-01-15T06:19:03;5.90;99.90
58865;DHT22;45702;52.982;6.658;2023-01-15T06:21:30;5.80;99.90
58865;DHT22;45702;52.982;6.658;2023-01-15T06:23:56;5.80;99.90
58865;DHT22;45702;52.982;6.658;2023-01-15T06:26:22;5.80;99.90
58865;DHT22;45702;52.982;6.658;2023-01-15T06:28:48;5.80;99.90
58865;DHT22;45702;52.982;6.658;2023-01-15T06:31:16;5.80;99.90
58865;DHT22;45702;52.982;6.658;2023-01-15T06:33:42;5.80;99.90
58865;DHT22;45702;52.982;6.658;2023-01-15T06:36:10;5.80;99.90
58865;DHT22;45702;52.982;6.658;2023-01-15T06:38:37;5.80;99.90
58865;DHT22;45702;52.982;6.658;2023-01-15T06:41:05;5.80;99.90
58865;DHT22;45702;52.982;6.658;2023-01-15T06:43:54;5.80;99.90
58865;DHT22;45702;52.982;6.658;2023-01-15T06:46:44;5.80;99.90
58865;DHT22;45702;52.982;6.658;2023-01-15T06:49:29;5.80;99.90
58865;DHT22;45702;52.982;6.658;2023-01-15T06:51:55;5.90;99.90
58865;DHT22;45702;52.982;6.658;2023-01-15T06:54:21;5.90;99.90
58865;DHT22;45702;52.982;6.658;2023-01-15T06:56:46;5.90;99.90
58865;DHT22;45702;52.982;6.658;2023-01-15T06:59:12;5.90;99.90
58865;DHT22;45702;52.982;6.658;2023-01-15T07:01:38;5.90;99.90
58865;DHT22;45702;52.982;6.658;2023-01-15T07:04:03;5.90;99.90
58865;DHT22;45702;52.982;6.658;2023-01-15T07:06:30;5.80;99.90
58865;DHT22;45702;52.982;6.658;2023-01-15T07:08:55;5.80;99.90
58865;DHT22;45702;52.982;6.658;2023-01-15T07:11:21;5.80;99.90
58865;DHT22;45702;52.982;6.658;2023-01-15T07:13:47;5.70;99.90
58865;DHT22;45702;52.982;6.658;2023-01-15T07:16:14;5.70;99.90
58865;DHT22;45702;52.982;6.658;2023-01-15T07:18:55;5.70;99.90
58865;DHT22;45702;52.982;6.658;2023-01-15T07:21:21;5.70;99.90
58865;DHT22;45702;52.982;6.658;2023-01-15T07:23:47;5.60;99.90
58865;DHT22;45702;52.982;6.658;2023-01-15T07:26:13;5.60;99.90
58865;DHT22;45702;52.982;6.658;2023-01-15T07:28:40;5.60;99.90
58865;DHT22;45702;52.982;6.658;2023-01-15T07:31:05;5.60;99.90
58865;DHT22;45702;52.982;6.658;2023-01-15T07:33:31;5.60;99.90
58865;DHT22;45702;52.982;6.658;2023-01-15T07:35:57;5.60;99.90
58865;DHT22;45702;52.982;6.658;2023-01-15T07:38:27;5.60;99.90
58865;DHT22;45702;52.982;6.658;2023-01-15T07:40:55;5.70;99.90
58865;DHT22;45702;52.982;6.658;2023-01-15T07:43:40;5.60;99.90
58865;DHT22;45702;52.982;6.658;2023-01-15T07:46:24;5.60;99.90
58865;DHT22;45702;52.982;6.658;2023-01-15T07:49:09;5.50;99.90
58865;DHT22;45702;52.982;6.658;2023-01-15T07:51:54;5.50;99.90
58865;DHT22;45702;52.982;6.658;2023-01-15T07:54:20;5.50;99.90
58865;DHT22;45702;52.982;6.658;2023-01-15T07:56:46;5.50;99.90
58865;DHT22;45702;52.982;6.658;2023-01-15T07:59:12;5.50;99.80
58865;DHT22;45702;52.982;6.658;2023-01-15T08:01:37;5.50;99.10
58865;DHT22;45702;52.982;6.658;2023-01-15T08:04:03;5.60;98.60
58865;DHT22;45702;52.982;6.658;2023-01-15T08:06:29;5.60;98.60
58865;DHT22;45702;52.982;6.658;2023-01-15T08:08:54;5.50;98.40
58865;DHT22;45702;52.982;6.658;2023-01-15T08:11:20;5.50;98.40
58865;DHT22;45702;52.982;6.658;2023-01-15T08:14:04;5.60;98.40
58865;DHT22;45702;52.982;6.658;2023-01-15T08:16:48;5.60;98.30
58865;DHT22;45702;52.982;6.658;2023-01-15T08:19:14;5.60;98.50
58865;DHT22;45702;52.982;6.658;2023-01-15T08:21:41;5.50;98.20
58865;DHT22;45702;52.982;6.658;2023-01-15T08:24:07;5.50;98.30
58865;DHT22;45702;52.982;6.658;2023-01-15T08:26:33;5.50;98.20
58865;DHT22;45702;52.982;6.658;2023-01-15T08:28:58;5.50;97.70
58865;DHT22;45702;52.982;6.658;2023-01-15T08:31:24;5.60;97.30
58865;DHT22;45702;52.982;6.658;2023-01-15T08:33:50;5.70;97.30
58865;DHT22;45702;52.982;6.658;2023-01-15T08:36:15;5.70;97.20
58865;DHT22;45702;52.982;6.658;2023-01-15T08:38:42;5.70;97.20
58865;DHT22;45702;52.982;6.658;2023-01-15T08:41:08;5.80;97.10
58865;DHT22;45702;52.982;6.658;2023-01-15T08:43:34;5.90;97.00
58865;DHT22;45702;52.982;6.658;2023-01-15T08:46:01;6.00;96.70
58865;DHT22;45702;52.982;6.658;2023-01-15T08:48:30;6.10;96.30
58865;DHT22;45702;52.982;6.658;2023-01-15T08:50:56;6.20;96.50
58865;DHT22;45702;52.982;6.658;2023-01-15T08:53:22;6.30;96.50
58865;DHT22;45702;52.982;6.658;2023-01-15T08:55:49;6.30;96.30
58865;DHT22;45702;52.982;6.658;2023-01-15T08:58:15;6.30;96.00
58865;DHT22;45702;52.982;6.658;2023-01-15T09:00:42;6.30;96.10
58865;DHT22;45702;52.982;6.658;2023-01-15T09:03:08;6.30;95.80
58865;DHT22;45702;52.982;6.658;2023-01-15T09:05:36;6.20;96.00
58865;DHT22;45702;52.982;6.658;2023-01-15T09:08:03;6.10;96.80
58865;DHT22;45702;52.982;6.658;2023-01-15T09:10:29;5.90;97.40
58865;DHT22;45702;52.982;6.658;2023-01-15T09:12:58;5.60;98.40
58865;DHT22;45702;52.982;6.658;2023-01-15T09:15:24;5.40;98.90
58865;DHT22;45702;52.982;6.658;2023-01-15T09:17:50;5.30;99.70
58865;DHT22;45702;52.982;6.658;2023-01-15T09:20:16;5.20;99.90
58865;DHT22;45702;52.982;6.658;2023-01-15T09:22:41;5.10;99.90
58865;DHT22;45702;52.982;6.658;2023-01-15T09:25:08;5.20;99.90
58865;DHT22;45702;52.982;6.658;2023-01-15T09:27:33;5.10;99.90
58865;DHT22;45702;52.982;6.658;2023-01-15T09:29:59;5.10;99.90
58865;DHT22;45702;52.982;6.658;2023-01-15T09:32:25;5.10;99.90
58865;DHT22;45702;52.982;6.658;2023-01-15T09:34:51;5.10;99.90
58865;DHT22;45702;52.982;6.658;2023-01-15T09:37:17;5.00;99.90
58865;DHT22;45702;52.982;6.658;2023-01-15T09:39:43;5.10;99.90
58865;DHT22;45702;52.982;6.658;2023-01-15T09:42:30;5.10;99.90
58865;DHT22;45702;52.982;6.658;2023-01-15T09:55:48;5.10;99.90
58865;DHT22;45702;52.982;6.658;2023-01-15T09:58:20;5.10;99.90
58865;DHT22;45702;52.982;6.658;2023-01-15T10:00:50;5.20;99.90
58865;DHT22;45702;52.982;6.658;2023-01-15T10:08:23;5.50;99.90
58865;DHT22;45702;52.982;6.658;2023-01-15T10:11:04;5.60;99.90
58865;DHT22;45702;52.982;6.658;2023-01-15T10:13:42;5.60;99.90
58865;DHT22;45702;52.982;6.658;2023-01-15T10:16:12;5.60;99.90
58865;DHT22;45702;52.982;6.658;2023-01-15T10:18:42;5.60;99.90
58865;DHT22;45702;52.982;6.658;2023-01-15T10:21:42;5.60;99.90
58865;DHT22;45702;52.982;6.658;2023-01-15T10:26:57;5.30;99.90
58865;DHT22;45702;52.982;6.658;2023-01-15T10:35:16;5.20;99.90
58865;DHT22;45702;52.982;6.658;2023-01-15T10:37:47;5.20;99.90
58865;DHT22;45702;52.982;6.658;2023-01-15T10:46:00;5.30;99.90
58865;DHT22;45702;52.982;6.658;2023-01-15T10:48:37;5.40;99.90
58865;DHT22;45702;52.982;6.658;2023-01-15T10:51:15;5.40;99.90
58865;DHT22;45702;52.982;6.658;2023-01-15T10:53:48;5.40;99.90
58865;DHT22;45702;52.982;6.658;2023-01-15T10:59:14;5.20;99.90
58865;DHT22;45702;52.982;6.658;2023-01-15T11:01:41;5.10;99.90
58865;DHT22;45702;52.982;6.658;2023-01-15T11:04:11;5.00;99.90
58865;DHT22;45702;52.982;6.658;2023-01-15T11:06:38;4.90;99.90
58865;DHT22;45702;52.982;6.658;2023-01-15T11:09:04;4.80;99.90
58865;DHT22;45702;52.982;6.658;2023-01-15T11:11:43;4.80;99.90
58865;DHT22;45702;52.982;6.658;2023-01-15T11:14:54;4.70;99.90
58865;DHT22;45702;52.982;6.658;2023-01-15T11:17:43;4.90;99.90
58865;DHT22;45702;52.982;6.658;2023-01-15T11:20:31;5.10;99.90
58865;DHT22;45702;52.982;6.658;2023-01-15T11:25:32;5.40;99.90
58865;DHT22;45702;52.982;6.658;2023-01-15T11:28:00;5.40;99.90
58865;DHT22;45702;52.982;6.658;2023-01-15T11:30:36;5.50;99.90
58865;DHT22;45702;52.982;6.658;2023-01-15T11:33:19;5.70;99.90
58865;DHT22;45702;52.982;6.658;2023-01-15T11:35:50;5.80;99.90
58865;DHT22;45702;52.982;6.658;2023-01-15T11:38:16;5.80;99.90
58865;DHT22;45702;52.982;6.658;2023-01-15T11:40:56;5.90;99.90
58865;DHT22;45702;52.982;6.658;2023-01-15T11:43:25;6.20;99.90
58865;DHT22;45702;52.982;6.658;2023-01-15T11:46:25;6.50;99.90
58865;DHT22;45702;52.982;6.658;2023-01-15T11:49:18;6.80;99.90
58865;DHT22;45702;52.982;6.658;2023-01-15T11:52:05;7.00;99.90
58865;DHT22;45702;52.982;6.658;2023-01-15T11:54:37;7.10;99.90
58865;DHT22;45702;52.982;6.658;2023-01-15T11:57:04;7.20;99.90
58865;DHT22;45702;52.982;6.658;2023-01-15T11:59:31;7.10;99.90
58865;DHT22;45702;52.982;6.658;2023-01-15T12:05:05;7.30;99.90
58865;DHT22;45702;52.982;6.658;2023-01-15T12:07:31;7.40;99.90
58865;DHT22;45702;52.982;6.658;2023-01-15T12:19:01;7.40;99.90
58865;DHT22;45702;52.982;6.658;2023-01-15T12:21:38;7.30;99.90
58865;DHT22;45702;52.982;6.658;2023-01-15T12:24:25;7.30;99.90
58865;DHT22;45702;52.982;6.658;2023-01-15T12:30:28;7.30;99.90
58865;DHT22;45702;52.982;6.658;2023-01-15T12:35:46;7.20;99.90
58865;DHT22;45702;52.982;6.658;2023-01-15T12:38:20;7.40;99.90
58865;DHT22;45702;52.982;6.658;2023-01-15T12:40:53;7.50;99.90
58865;DHT22;45702;52.982;6.658;2023-01-15T12:43:27;7.50;99.90
58865;DHT22;45702;52.982;6.658;2023-01-15T12:46:31;7.60;99.90
58865;DHT22;45702;52.982;6.658;2023-01-15T12:51:46;7.70;99.90
58865;DHT22;45702;52.982;6.658;2023-01-15T12:54:18;7.70;99.90
58865;DHT22;45702;52.982;6.658;2023-01-15T12:57:02;7.70;99.90
58865;DHT22;45702;52.982;6.658;2023-01-15T12:59:43;7.70;99.90
58865;DHT22;45702;52.982;6.658;2023-01-15T13:05:15;7.70;99.90
58865;DHT22;45702;52.982;6.658;2023-01-15T13:07:49;7.70;99.90
58865;DHT22;45702;52.982;6.658;2023-01-15T13:12:43;7.80;98.50
58865;DHT22;45702;52.982;6.658;2023-01-15T13:15:14;7.90;98.20
58865;DHT22;45702;52.982;6.658;2023-01-15T13:18:03;7.90;97.30
58865;DHT22;45702;52.982;6.658;2023-01-15T13:28:50;8.20;97.20
58865;DHT22;45702;52.982;6.658;2023-01-15T13:34:00;7.90;98.00
58865;DHT22;45702;52.982;6.658;2023-01-15T13:36:32;7.70;98.70
58865;DHT22;45702;52.982;6.658;2023-01-15T13:39:04;7.50;99.20
58865;DHT22;45702;52.982;6.658;2023-01-15T13:41:32;7.40;99.80
58865;DHT22;45702;52.982;6.658;2023-01-15T13:44:23;7.20;99.90
58865;DHT22;45702;52.982;6.658;2023-01-15T13:47:08;6.90;99.90
58865;DHT22;45702;52.982;6.658;2023-01-15T13:49:39;6.60;99.90
58865;DHT22;45702;52.982;6.658;2023-01-15T13:52:16;6.20;99.90
58865;DHT22;45702;52.982;6.658;2023-01-15T13:54:44;6.00;99.90
58865;DHT22;45702;52.982;6.658;2023-01-15T13:57:34;5.70;99.90
58865;DHT22;45702;52.982;6.658;2023-01-15T14:00:06;5.60;99.90
58865;DHT22;45702;52.982;6.658;2023-01-15T14:02:35;5.50;99.90
58865;DHT22;45702;52.982;6.658;2023-01-15T14:07:51;5.50;99.90
58865;DHT22;45702;52.982;6.658;2023-01-15T14:18:36;5.40;99.90
58865;DHT22;45702;52.982;6.658;2023-01-15T14:24:42;5.40;99.90
58865;DHT22;45702;52.982;6.658;2023-01-15T14:35:46;5.50;99.90
58865;DHT22;45702;52.982;6.658;2023-01-15T14:38:21;5.60;99.90
58865;DHT22;45702;52.982;6.658;2023-01-15T14:41:02;5.70;99.90
58865;DHT22;45702;52.982;6.658;2023-01-15T14:43:32;5.70;99.90
58865;DHT22;45702;52.982;6.658;2023-01-15T14:46:14;5.70;99.90
58865;DHT22;45702;52.982;6.658;2023-01-15T14:48:40;5.80;99.90
58865;DHT22;45702;52.982;6.658;2023-01-15T14:51:11;5.80;99.90
58865;DHT22;45702;52.982;6.658;2023-01-15T14:53:49;5.90;99.90
58865;DHT22;45702;52.982;6.658;2023-01-15T14:56:22;5.90;99.90
58865;DHT22;45702;52.982;6.658;2023-01-15T15:06:58;5.90;99.90
58865;DHT22;45702;52.982;6.658;2023-01-15T15:12:06;6.00;99.90
58865;DHT22;45702;52.982;6.658;2023-01-15T15:15:10;6.00;99.90
58865;DHT22;45702;52.982;6.658;2023-01-15T15:23:23;6.00;99.90
58865;DHT22;45702;52.982;6.658;2023-01-15T15:25:59;6.00;99.90
58865;DHT22;45702;52.982;6.658;2023-01-15T15:28:26;6.10;99.90
58865;DHT22;45702;52.982;6.658;2023-01-15T15:30:53;6.10;99.90
58865;DHT22;45702;52.982;6.658;2023-01-15T15:33:24;6.10;99.90
58865;DHT22;45702;52.982;6.658;2023-01-15T15:35:56;6.10;99.90
58865;DHT22;45702;52.982;6.658;2023-01-15T15:38:23;6.10;99.90
58865;DHT22;45702;52.982;6.658;2023-01-15T15:40:55;6.10;99.90
58865;DHT22;45702;52.982;6.658;2023-01-15T15:46:31;6.20;99.90
58865;DHT22;45702;52.982;6.658;2023-01-15T15:49:17;6.10;99.90
58865;DHT22;45702;52.982;6.658;2023-01-15T15:51:53;6.20;99.90
58865;DHT22;45702;52.982;6.658;2023-01-15T15:54:25;6.20;99.90
58865;DHT22;45702;52.982;6.658;2023-01-15T15:57:07;6.10;99.90
58865;DHT22;45702;52.982;6.658;2023-01-15T15:59:47;6.20;99.90
58865;DHT22;45702;52.982;6.658;2023-01-15T16:02:16;6.20;99.90
58865;DHT22;45702;52.982;6.658;2023-01-15T16:04:54;6.20;99.90
58865;DHT22;45702;52.982;6.658;2023-01-15T16:07:30;6.10;99.90
58865;DHT22;45702;52.982;6.658;2023-01-15T16:10:21;6.10;99.90
58865;DHT22;45702;52.982;6.658;2023-01-15T16:12:51;6.10;99.90
58865;DHT22;45702;52.982;6.658;2023-01-15T16:15:18;6.20;99.90
58865;DHT22;45702;52.982;6.658;2023-01-15T16:17:45;6.20;99.90
58865;DHT22;45702;52.982;6.658;2023-01-15T16:20:16;6.20;99.90
58865;DHT22;45702;52.982;6.658;2023-01-15T16:22:46;6.20;99.90
58865;DHT22;45702;52.982;6.658;2023-01-15T16:25:28;6.20;99.90
58865;DHT22;45702;52.982;6.658;2023-01-15T16:27:55;6.20;99.90
58865;DHT22;45702;52.982;6.658;2023-01-15T16:30:21;6.20;99.90
58865;DHT22;45702;52.982;6.658;2023-01-15T16:32:49;6.30;99.90
58865;DHT22;45702;52.982;6.658;2023-01-15T16:35:18;6.30;99.90
58865;DHT22;45702;52.982;6.658;2023-01-15T16:37:50;6.20;99.90
58865;DHT22;45702;52.982;6.658;2023-01-15T16:42:47;6.20;99.90
58865;DHT22;45702;52.982;6.658;2023-01-15T16:45:24;6.20;99.90
58865;DHT22;45702;52.982;6.658;2023-01-15T16:50:37;6.20;99.90
58865;DHT22;45702;52.982;6.658;2023-01-15T16:53:05;6.10;99.90
58865;DHT22;45702;52.982;6.658;2023-01-15T16:55:37;6.20;99.90
58865;DHT22;45702;52.982;6.658;2023-01-15T17:00:39;6.10;99.90
58865;DHT22;45702;52.982;6.658;2023-01-15T17:03:27;6.10;99.90
58865;DHT22;45702;52.982;6.658;2023-01-15T17:05:59;6.10;99.90
58865;DHT22;45702;52.982;6.658;2023-01-15T17:08:35;6.10;99.90
58865;DHT22;45702;52.982;6.658;2023-01-15T17:11:06;6.10;99.90
58865;DHT22;45702;52.982;6.658;2023-01-15T17:13:39;6.10;99.90
58865;DHT22;45702;52.982;6.658;2023-01-15T17:18:37;6.00;99.90
58865;DHT22;45702;52.982;6.658;2023-01-15T17:21:02;6.00;99.90
58865;DHT22;45702;52.982;6.658;2023-01-15T17:23:32;6.00;99.90
58865;DHT22;45702;52.982;6.658;2023-01-15T17:25:59;6.00;99.90
58865;DHT22;45702;52.982;6.658;2023-01-15T17:28:25;5.90;99.90
58865;DHT22;45702;52.982;6.658;2023-01-15T17:30:52;5.90;99.90
58865;DHT22;45702;52.982;6.658;2023-01-15T17:33:21;5.90;99.90
58865;DHT22;45702;52.982;6.658;2023-01-15T17:35:47;5.90;99.90
58865;DHT22;45702;52.982;6.658;2023-01-15T17:38:14;5.90;99.90
58865;DHT22;45702;52.982;6.658;2023-01-15T17:40:40;5.90;99.90
58865;DHT22;45702;52.982;6.658;2023-01-15T17:43:08;5.90;99.90
58865;DHT22;45702;52.982;6.658;2023-01-15T17:45:34;6.00;99.90
58865;DHT22;45702;52.982;6.658;2023-01-15T17:48:00;6.00;99.90
58865;DHT22;45702;52.982;6.658;2023-01-15T17:50:28;5.90;99.90
58865;DHT22;45702;52.982;6.658;2023-01-15T17:52:54;6.00;99.90
58865;DHT22;45702;52.982;6.658;2023-01-15T17:55:21;6.00;99.90
58865;DHT22;45702;52.982;6.658;2023-01-15T17:58:09;6.00;99.90
58865;DHT22;45702;52.982;6.658;2023-01-15T18:00:53;6.00;99.90
58865;DHT22;45702;52.982;6.658;2023-01-15T18:03:44;6.00;99.90
58865;DHT22;45702;52.982;6.658;2023-01-15T18:06:29;5.90;99.90
58865;DHT22;45702;52.982;6.658;2023-01-15T18:08:57;5.90;99.90
58865;DHT22;45702;52.982;6.658;2023-01-15T18:11:24;5.90;99.90
58865;DHT22;45702;52.982;6.658;2023-01-15T18:13:50;5.90;99.90
58865;DHT22;45702;52.982;6.658;2023-01-15T18:16:17;5.80;99.90
58865;DHT22;45702;52.982;6.658;2023-01-15T18:18:42;5.80;99.90
58865;DHT22;45702;52.982;6.658;2023-01-15T18:21:08;5.80;99.90
58865;DHT22;45702;52.982;6.658;2023-01-15T18:23:37;5.70;99.90
58865;DHT22;45702;52.982;6.658;2023-01-15T18:26:08;5.80;99.90
58865;DHT22;45702;52.982;6.658;2023-01-15T18:28:37;5.80;99.90
58865;DHT22;45702;52.982;6.658;2023-01-15T18:31:04;5.80;99.90
58865;DHT22;45702;52.982;6.658;2023-01-15T18:33:30;5.80;99.90
58865;DHT22;45702;52.982;6.658;2023-01-15T18:36:05;5.80;99.90
58865;DHT22;45702;52.982;6.658;2023-01-15T18:38:34;5.80;99.90
58865;DHT22;45702;52.982;6.658;2023-01-15T18:41:11;5.90;99.90
58865;DHT22;45702;52.982;6.658;2023-01-15T18:43:37;5.90;99.90
58865;DHT22;45702;52.982;6.658;2023-01-15T18:46:21;5.90;99.90